Time;durP1;ratioP1;P1;durP2;ratioP2;P2;SDS_P1;SDS_P2;PMS_P1;PMS_P2;Temp;Humidity;BMP_temperature;BMP_pressure;BME280_temperature;BME280_humidity;BME280_pressure;Samples;Min_cycle;Max_cycle;Signal;HPM_P1;HPM_P2
2021/06/18 02:46:34;;;;;;;6.82;6.13;;;20.50;82.70;;;;;;5796147;23;89604;-77
2021/06/18 02:49:01;;;;;;;10.40;7.22;;;20.50;83.20;;;;;;4850876;29;87269;-78
2021/06/18 02:51:37;;;;;;;7.63;6.82;;;20.50;84.30;;;;;;4850801;29;87927;-78
2021/06/18 02:54:45;;;;;;;7.90;7.10;;;20.50;85.60;;;;;;4850350;29;86981;-78
2021/06/18 02:57:19;;;;;;;9.48;6.57;;;20.30;86.40;;;;;;4849342;29;86919;-78
2021/06/18 03:00:07;;;;;;;8.63;6.80;;;20.30;87.60;;;;;;4848580;29;88207;-78
2021/06/18 03:02:40;;;;;;;7.05;6.40;;;20.20;87.30;;;;;;4848689;29;87342;-78
2021/06/18 03:05:08;;;;;;;7.40;6.57;;;20.20;86.30;;;;;;4847812;29;86690;-78
2021/06/18 03:07:35;;;;;;;7.50;6.70;;;20.20;86.80;;;;;;4848026;29;87009;-78
2021/06/18 03:10:08;;;;;;;7.07;6.35;;;20.10;86.60;;;;;;4848988;29;87044;-78
2021/06/18 03:12:39;;;;;;;7.38;6.50;;;20.20;87.00;;;;;;4836317;29;87524;-78
2021/06/18 03:15:07;;;;;;;7.78;6.53;;;20.20;86.70;;;;;;4831002;29;86953;-78
2021/06/18 03:17:36;;;;;;;8.30;6.75;;;20.10;87.00;;;;;;4842877;29;85957;-78
2021/06/18 03:20:06;;;;;;;7.88;6.55;;;20.10;87.40;;;;;;4830829;29;87527;-78
2021/06/18 03:22:34;;;;;;;10.30;6.35;;;20.10;88.70;;;;;;4839559;29;86922;-78
2021/06/18 03:25:02;;;;;;;7.40;6.30;;;20.10;88.30;;;;;;4850491;29;87978;-78
2021/06/18 03:27:31;;;;;;;8.65;6.25;;;20.10;88.50;;;;;;4845756;29;87386;-78
2021/06/18 03:29:57;;;;;;;8.50;6.55;;;20.10;88.80;;;;;;4835427;29;87190;-78
2021/06/18 03:32:24;;;;;;;9.73;6.80;;;20.10;88.90;;;;;;4832697;29;86929;-78
2021/06/18 03:34:50;;;;;;;11.48;7.15;;;20.10;90.20;;;;;;4844832;29;86994;-78
2021/06/18 03:37:19;;;;;;;7.63;6.80;;;20.00;90.40;;;;;;4850592;29;86931;-78
2021/06/18 03:39:46;;;;;;;9.40;6.47;;;20.00;90.60;;;;;;4850386;29;86884;-78
2021/06/18 03:42:12;;;;;;;8.38;6.53;;;20.00;90.60;;;;;;4850223;29;87852;-78
2021/06/18 03:44:38;;;;;;;8.82;6.10;;;20.00;91.20;;;;;;4850567;29;86960;-78
2021/06/18 03:47:05;;;;;;;7.50;6.47;;;20.10;91.10;;;;;;4844504;29;87131;-78
2021/06/18 03:49:32;;;;;;;9.02;6.88;;;20.10;91.80;;;;;;4868186;29;88601;-78
2021/06/18 03:51:57;;;;;;;9.65;7.07;;;20.10;92.40;;;;;;4871752;28;88102;-78
2021/06/18 03:54:24;;;;;;;8.13;6.80;;;20.10;92.90;;;;;;4869761;28;86952;-78
2021/06/18 03:56:52;;;;;;;7.75;6.65;;;20.10;93.40;;;;;;4883839;28;86755;-78
2021/06/18 03:59:19;;;;;;;9.15;6.90;;;20.20;93.50;;;;;;4873502;28;86720;-78
2021/06/18 04:01:49;;;;;;;7.35;5.57;;;20.20;93.90;;;;;;4872519;28;87857;-77
2021/06/18 04:04:16;;;;;;;7.00;5.85;;;20.30;94.10;;;;;;4874113;28;86729;-78
2021/06/18 04:06:43;;;;;;;8.27;7.28;;;20.40;94.30;;;;;;4883065;28;86063;-78
2021/06/18 04:09:09;;;;;;;8.60;6.68;;;20.40;94.30;;;;;;4876921;28;87270;-78
2021/06/18 04:11:35;;;;;;;7.60;6.82;;;20.40;94.20;;;;;;4879433;28;88120;-78
2021/06/18 04:14:02;;;;;;;8.27;7.47;;;20.40;95.40;;;;;;4866685;28;87914;-78
2021/06/18 04:16:28;;;;;;;8.43;6.50;;;20.40;96.10;;;;;;4867030;28;87129;-78
2021/06/18 04:18:54;;;;;;;9.15;7.13;;;20.40;96.20;;;;;;4886201;28;88345;-77
2021/06/18 04:21:22;;;;;;;7.72;6.35;;;20.50;96.10;;;;;;4872205;28;87005;-78
2021/06/18 04:23:49;;;;;;;7.35;6.55;;;20.50;96.00;;;;;;4878926;28;87506;-78
2021/06/18 04:26:15;;;;;;;7.10;6.15;;;20.60;96.00;;;;;;4867911;28;87005;-78
2021/06/18 04:28:42;;;;;;;11.85;6.82;;;20.70;95.90;;;;;;4867511;29;88481;-78
2021/06/18 04:31:08;;;;;;;7.65;6.63;;;20.80;96.20;;;;;;4882318;28;86920;-78
2021/06/18 04:33:35;;;;;;;8.15;6.40;;;20.90;96.20;;;;;;4886215;28;87026;-78
2021/06/18 04:36:01;;;;;;;7.53;6.50;;;21.00;96.20;;;;;;4871488;28;86939;-78
2021/06/18 04:38:27;;;;;;;6.90;6.20;;;21.10;96.70;;;;;;4870727;28;88945;-78
2021/06/18 04:40:54;;;;;;;9.73;7.15;;;21.20;96.60;;;;;;4865832;28;87870;-77
2021/06/18 04:43:20;;;;;;;7.70;6.43;;;21.20;96.40;;;;;;4865061;29;87106;-77
2021/06/18 04:45:46;;;;;;;8.35;6.53;;;21.30;96.30;;;;;;4879123;28;87104;-77
2021/06/18 04:48:12;;;;;;;11.85;7.10;;;21.40;96.70;;;;;;4874550;28;87360;-77
2021/06/18 04:50:38;;;;;;;7.97;7.13;;;21.40;97.60;;;;;;4864558;28;87480;-77
2021/06/18 04:53:10;;;;;;;8.40;7.60;;;21.50;97.50;;;;;;4865132;28;86913;-77
2021/06/18 04:55:38;;;;;;;7.13;6.15;;;21.50;97.30;;;;;;4895411;28;86605;-77
2021/06/18 04:58:04;;;;;;;7.20;6.40;;;21.60;97.30;;;;;;4884034;28;87667;-77
2021/06/18 05:00:29;;;;;;;7.97;6.32;;;21.60;97.70;;;;;;4883497;28;86956;-77
2021/06/18 05:02:55;;;;;;;9.80;7.82;;;21.70;98.80;;;;;;4878073;28;87850;-77
2021/06/18 05:05:21;;;;;;;7.15;6.20;;;21.80;98.50;;;;;;4867595;28;87073;-77
2021/06/18 05:07:53;;;;;;;7.25;6.40;;;21.90;98.30;;;;;;4870641;28;87706;-77
2021/06/18 05:10:19;;;;;;;10.23;6.65;;;21.90;97.70;;;;;;4883518;28;87003;-78
2021/06/18 05:12:45;;;;;;;16.30;7.80;;;;;;;;;;4883784;28;86877;-77
2021/06/18 05:15:11;;;;;;;6.35;5.70;;;22.10;95.50;;;;;;4874101;28;87079;-78
2021/06/18 05:17:37;;;;;;;7.57;6.88;;;23.20;95.80;;;;;;4867505;28;88615;-78
2021/06/18 05:20:04;;;;;;;7.88;7.07;;;22.20;94.90;;;;;;4867492;28;86989;-78
2021/06/18 05:22:30;;;;;;;8.02;7.28;;;22.90;94.10;;;;;;4864782;28;87079;-78
2021/06/18 05:24:56;;;;;;;11.27;8.23;;;22.70;93.50;;;;;;4864923;28;87181;-78
2021/06/18 05:27:22;;;;;;;8.80;7.90;;;22.70;93.40;;;;;;4863979;28;89072;-77
2021/06/18 05:29:47;;;;;;;8.00;7.32;;;22.90;92.70;;;;;;4877175;28;88435;-77
2021/06/18 05:32:13;;;;;;;8.43;7.63;;;22.30;93.20;;;;;;4864346;28;87040;-77
2021/06/18 05:34:39;;;;;;;8.70;7.85;;;23.50;93.40;;;;;;4865870;28;87666;-78
2021/06/18 05:37:05;;;;;;;12.48;8.35;;;23.10;92.70;;;;;;4865799;28;86904;-78
2021/06/18 05:39:30;;;;;;;9.52;8.60;;;23.50;92.70;;;;;;4869077;28;87918;-78
2021/06/18 05:41:56;;;;;;;9.70;8.65;;;;;;;;;;4872629;28;86704;-79
2021/06/18 05:44:22;;;;;;;9.68;8.38;;;23.30;91.00;;;;;;4892806;28;86391;-79
2021/06/18 05:46:48;;;;;;;8.38;6.82;;;23.10;90.40;;;;;;4889304;28;87084;-78
2021/06/18 05:49:13;;;;;;;8.35;7.50;;;23.10;90.60;;;;;;4892912;28;88205;-78
2021/06/18 05:51:39;;;;;;;10.50;7.22;;;23.10;90.40;;;;;;4886905;28;87162;-78
2021/06/18 05:54:05;;;;;;;8.00;6.63;;;23.10;91.10;;;;;;4870666;29;86841;-79
2021/06/18 05:56:31;;;;;;;12.55;7.10;;;23.00;90.10;;;;;;4874965;28;88661;-78
2021/06/18 05:58:57;;;;;;;9.15;6.55;;;23.20;91.00;;;;;;4884341;28;86974;-79
2021/06/18 06:01:24;;;;;;;10.93;7.00;;;23.30;89.80;;;;;;4873412;29;86686;-79
2021/06/18 06:03:53;;;;;;;8.43;6.40;;;23.20;89.50;;;;;;4871811;28;86731;-79
2021/06/18 06:06:20;;;;;;;13.50;6.93;;;23.30;90.40;;;;;;4872998;28;86989;-79
2021/06/18 06:08:46;;;;;;;7.18;6.47;;;23.50;90.80;;;;;;4882711;28;86699;-78
2021/06/18 06:11:12;;;;;;;8.02;6.72;;;23.60;90.70;;;;;;4878294;28;87063;-78
2021/06/18 06:13:38;;;;;;;9.93;6.65;;;23.60;89.20;;;;;;4872876;28;87079;-78
2021/06/18 06:16:05;;;;;;;9.43;6.53;;;23.60;90.60;;;;;;4867789;29;87904;-78
2021/06/18 06:18:30;;;;;;;9.52;8.23;;;24.00;91.80;;;;;;4880501;28;87173;-78
2021/06/18 06:20:56;;;;;;;8.73;6.85;;;23.80;89.20;;;;;;4868509;28;86847;-78
2021/06/18 06:23:22;;;;;;;7.72;7.00;;;23.80;89.00;;;;;;4881037;28;86696;-78
2021/06/18 06:25:47;;;;;;;8.40;7.20;;;23.80;90.00;;;;;;4877453;28;87004;-79
2021/06/18 06:28:13;;;;;;;7.40;6.50;;;23.90;89.00;;;;;;4881601;28;87750;-78
2021/06/18 06:30:39;;;;;;;9.80;6.72;;;24.00;89.70;;;;;;4879233;28;87066;-78
2021/06/18 06:33:05;;;;;;;9.48;6.95;;;24.10;89.40;;;;;;4873007;28;86297;-78
2021/06/18 06:35:31;;;;;;;7.35;6.63;;;24.20;88.70;;;;;;4868546;29;87312;-78
2021/06/18 06:37:57;;;;;;;7.00;6.40;;;24.20;87.30;;;;;;4874391;28;87187;-78
2021/06/18 06:40:23;;;;;;;7.38;6.45;;;24.40;87.40;;;;;;4871995;28;87901;-78
2021/06/18 06:42:51;;;;;;;8.38;6.82;;;24.50;86.70;;;;;;4872390;29;87058;-79
2021/06/18 06:45:17;;;;;;;8.43;6.85;;;24.60;87.90;;;;;;4873200;28;87209;-79
2021/06/18 06:47:43;;;;;;;9.23;8.35;;;24.70;85.80;;;;;;4869202;28;86940;-78
2021/06/18 06:50:10;;;;;;;9.73;8.15;;;24.90;86.50;;;;;;4870811;28;86304;-78
2021/06/18 06:52:36;;;;;;;9.65;8.05;;;25.00;83.30;;;;;;4880142;28;86889;-78
2021/06/18 06:55:02;;;;;;;9.40;7.57;;;24.90;83.70;;;;;;4874564;28;86556;-78
2021/06/18 06:57:28;;;;;;;8.27;7.22;;;25.40;83.80;;;;;;4874804;28;86434;-78
2021/06/18 06:59:53;;;;;;;8.60;7.85;;;25.30;84.30;;;;;;4882208;28;86976;-78
2021/06/18 07:02:20;;;;;;;8.93;7.95;;;25.40;81.40;;;;;;4879655;28;86969;-78
2021/06/18 07:04:45;;;;;;;8.88;8.07;;;26.20;80.40;;;;;;4873946;28;87893;-78
2021/06/18 07:07:11;;;;;;;8.73;7.68;;;26.00;79.90;;;;;;4873642;28;87090;-78
2021/06/18 07:09:38;;;;;;;11.48;8.75;;;25.70;80.10;;;;;;4870076;28;86936;-78
2021/06/18 07:12:06;;;;;;;8.80;7.90;;;25.80;79.50;;;;;;4870965;29;86858;-78
2021/06/18 07:14:32;;;;;;;7.13;6.43;;;26.00;80.00;;;;;;4876423;28;87093;-78
2021/06/18 07:16:58;;;;;;;8.32;7.53;;;26.10;79.20;;;;;;4877020;28;87032;-78
2021/06/18 07:19:23;;;;;;;11.02;7.75;;;26.20;78.90;;;;;;4876801;28;87015;-78
2021/06/18 07:21:49;;;;;;;10.02;7.95;;;26.50;77.40;;;;;;4870074;28;86391;-78
2021/06/18 07:24:16;;;;;;;8.57;7.88;;;26.60;75.80;;;;;;4888378;28;86977;-78
2021/06/18 07:26:42;;;;;;;9.10;8.20;;;26.50;76.10;;;;;;4869992;28;86979;-78
2021/06/18 07:29:07;;;;;;;8.82;8.05;;;26.50;76.80;;;;;;4876742;28;87871;-78
2021/06/18 07:31:33;;;;;;;8.60;7.80;;;26.60;75.50;;;;;;4876740;28;87303;-78
2021/06/18 07:34:01;;;;;;;9.10;8.30;;;26.80;76.30;;;;;;4878347;28;87294;-78
2021/06/18 07:36:26;;;;;;;8.60;7.80;;;26.80;73.90;;;;;;4886848;28;88818;-78
2021/06/18 07:38:52;;;;;;;8.38;7.68;;;27.00;74.70;;;;;;4879550;28;86927;-78
2021/06/18 07:41:18;;;;;;;9.02;8.13;;;27.00;74.90;;;;;;4884765;28;86924;-78
2021/06/18 07:43:44;;;;;;;8.77;7.93;;;27.10;74.20;;;;;;4878895;28;87809;-78
2021/06/18 07:46:09;;;;;;;10.10;7.63;;;27.30;73.20;;;;;;4893186;28;91318;-78
2021/06/18 07:48:36;;;;;;;8.23;7.63;;;27.30;73.30;;;;;;4878436;28;87299;-78
2021/06/18 07:51:02;;;;;;;7.90;7.30;;;27.50;72.10;;;;;;4870848;28;86950;-78
2021/06/18 07:53:28;;;;;;;8.00;7.28;;;27.50;72.50;;;;;;4874230;28;87915;-79
2021/06/18 07:55:54;;;;;;;8.60;7.75;;;27.70;71.00;;;;;;4884081;28;87854;-79
2021/06/18 07:58:20;;;;;;;8.57;7.88;;;27.80;72.10;;;;;;4869367;28;87513;-77
2021/06/18 08:00:47;;;;;;;8.18;7.40;;;27.90;71.90;;;;;;4873013;28;86803;-77
2021/06/18 08:03:13;;;;;;;8.90;7.70;;;28.00;70.70;;;;;;4875176;28;87272;-78
2021/06/18 08:05:39;;;;;;;8.95;7.72;;;28.30;68.80;;;;;;4874200;28;87204;-78
2021/06/18 08:08:04;;;;;;;8.98;7.60;;;28.20;68.90;;;;;;4874181;28;86528;-78
2021/06/18 08:10:31;;;;;;;8.57;7.68;;;28.30;67.20;;;;;;4869904;28;86139;-78
2021/06/18 08:12:57;;;;;;;7.97;7.28;;;28.30;67.30;;;;;;4879792;28;87779;-78
2021/06/18 08:15:22;;;;;;;7.85;7.15;;;28.40;66.30;;;;;;4880089;28;86882;-78
2021/06/18 08:17:48;;;;;;;8.95;8.23;;;28.60;67.00;;;;;;4873124;28;88353;-78
2021/06/18 08:20:20;;;;;;;7.93;7.32;;;28.60;66.10;;;;;;4873220;28;86868;-77
2021/06/18 08:22:47;;;;;;;8.60;7.80;;;28.60;66.30;;;;;;4874328;28;88268;-78
2021/06/18 08:25:13;;;;;;;8.55;7.32;;;28.70;67.00;;;;;;4873414;28;87868;-77
2021/06/18 08:27:39;;;;;;;8.30;7.47;;;28.70;66.00;;;;;;4877459;28;87545;-78
2021/06/18 08:30:06;;;;;;;8.98;7.85;;;28.80;66.40;;;;;;4876206;28;86977;-78
2021/06/18 08:32:32;;;;;;;7.95;6.82;;;28.90;65.40;;;;;;4877954;28;88159;-78
2021/06/18 08:34:57;;;;;;;8.35;7.55;;;28.90;64.50;;;;;;4875995;28;87024;-79
2021/06/18 08:37:23;;;;;;;8.25;7.45;;;29.00;65.20;;;;;;4880460;28;87041;-78
2021/06/18 08:39:49;;;;;;;7.55;6.85;;;29.10;64.70;;;;;;4872016;28;87145;-78
2021/06/18 08:42:14;;;;;;;8.65;7.85;;;29.00;64.10;;;;;;4879041;28;89312;-78
2021/06/18 08:44:41;;;;;;;8.00;7.20;;;29.10;62.40;;;;;;4872519;28;88352;-78
2021/06/18 08:47:07;;;;;;;7.30;6.65;;;29.10;62.80;;;;;;4872782;28;86949;-78
2021/06/18 08:49:35;;;;;;;7.40;6.80;;;29.30;64.00;;;;;;4879728;28;86780;-78
2021/06/18 08:52:00;;;;;;;7.75;6.50;;;29.40;62.70;;;;;;4882783;28;88566;-78
2021/06/18 08:54:41;;;;;;;7.93;7.20;;;29.60;63.90;;;;;;4867879;28;87908;-78
2021/06/18 08:57:11;;;;;;;7.32;6.68;;;29.80;63.50;;;;;;4877170;28;86951;-78
2021/06/18 08:59:38;;;;;;;7.45;6.85;;;30.10;62.20;;;;;;4880569;28;86289;-78
2021/06/18 09:02:04;;;;;;;8.13;7.50;;;30.30;60.20;;;;;;4877005;28;87566;-78
2021/06/18 09:04:29;;;;;;;7.82;7.30;;;30.30;59.40;;;;;;4874045;28;86945;-78
2021/06/18 09:07:00;;;;;;;8.35;7.70;;;30.40;60.70;;;;;;4884951;28;87988;-78
2021/06/18 09:09:27;;;;;;;7.18;6.55;;;30.70;59.90;;;;;;4869452;28;86965;-78
2021/06/18 09:11:59;;;;;;;7.90;7.18;;;30.90;60.10;;;;;;4874680;28;87034;-78
2021/06/18 09:14:36;;;;;;;8.30;7.60;;;31.30;57.80;;;;;;4867694;29;87061;-78
2021/06/18 09:17:01;;;;;;;8.18;7.20;;;31.60;57.40;;;;;;4866765;28;87028;-79
2021/06/18 09:19:28;;;;;;;7.00;6.50;;;32.10;57.80;;;;;;4887106;28;87460;-78
2021/06/18 09:22:01;;;;;;;11.80;8.05;;;32.40;57.00;;;;;;4873536;28;87011;-77
2021/06/18 09:24:29;;;;;;;8.02;7.32;;;32.90;56.50;;;;;;4878894;28;88105;-78
2021/06/18 09:26:55;;;;;;;7.93;7.22;;;33.20;56.80;;;;;;4878346;28;86947;-78
2021/06/18 09:29:22;;;;;;;9.02;7.40;;;33.70;55.30;;;;;;4875725;28;87039;-77
2021/06/18 09:32:02;;;;;;;9.13;7.57;;;34.40;53.80;;;;;;4871100;28;88018;-79
2021/06/18 09:37:34;;;;;;;6.50;5.85;;;36.40;48.60;;;;;;4870675;28;87182;-76
2021/06/18 09:40:09;;;;;;;8.13;7.35;;;37.40;47.30;;;;;;4872101;28;86918;-77
2021/06/18 09:42:36;;;;;;;8.50;7.88;;;38.30;45.50;;;;;;4872963;28;88374;-76
2021/06/18 09:45:15;;;;;;;7.88;7.38;;;39.00;43.80;;;;;;4878378;28;87678;-76
2021/06/18 09:47:41;;;;;;;9.07;8.45;;;40.00;41.90;;;;;;4877584;28;87135;-78
2021/06/18 09:50:12;;;;;;;9.05;8.45;;;40.80;40.10;;;;;;4874913;28;86240;-78
2021/06/18 09:52:39;;;;;;;8.30;7.80;;;41.00;39.20;;;;;;4867899;28;87754;-78
2021/06/18 09:55:06;;;;;;;10.02;9.23;;;41.90;39.10;;;;;;4886612;28;87002;-78
2021/06/18 09:57:36;;;;;;;8.43;7.82;;;42.20;39.20;;;;;;4874579;28;87962;-78
2021/06/18 10:00:08;;;;;;;9.10;8.27;;;43.10;37.10;;;;;;4889450;28;87108;-77
2021/06/18 10:02:41;;;;;;;8.80;8.13;;;42.90;37.70;;;;;;4878709;28;87660;-78
2021/06/18 10:05:09;;;;;;;8.52;7.90;;;43.50;36.50;;;;;;4878909;28;87157;-82
2021/06/18 10:07:35;;;;;;;9.97;9.27;;;44.10;37.30;;;;;;4889897;28;86865;-81
2021/06/18 10:10:05;;;;;;;10.23;9.45;;;44.60;35.80;;;;;;4886187;28;86796;-80
2021/06/18 10:12:31;;;;;;;10.60;9.88;;;44.70;34.40;;;;;;4898658;28;90570;-81
2021/06/18 10:15:04;;;;;;;10.15;9.35;;;44.60;34.30;;;;;;4908593;28;87919;-80
2021/06/18 10:17:31;;;;;;;10.48;9.48;;;44.90;34.20;;;;;;4904188;28;86850;-84
2021/06/18 10:19:56;;;;;;;9.65;9.13;;;45.40;34.50;;;;;;4875663;28;86457;-83
2021/06/18 10:22:23;;;;;;;10.27;9.48;;;46.10;33.60;;;;;;4876548;29;87803;-82
2021/06/18 10:25:04;;;;;;;10.18;9.32;;;46.50;33.50;;;;;;4876748;28;88044;-84
2021/06/18 10:27:39;;;;;;;10.68;9.88;;;46.90;33.70;;;;;;4873636;28;86936;-83
2021/06/18 10:30:31;;;;;;;9.90;9.40;;;47.10;32.90;;;;;;4882637;28;86490;-84
2021/06/18 10:32:58;;;;;;;9.55;8.95;;;47.20;32.30;;;;;;4882046;28;87633;-83
2021/06/18 10:36:04;;;;;;;9.93;9.32;;;47.40;32.40;;;;;;4877322;28;87208;-83
2021/06/18 10:38:37;;;;;;;10.05;9.30;;;47.20;31.80;;;;;;4870744;28;87030;-84
2021/06/18 10:41:04;;;;;;;10.25;9.52;;;47.00;32.80;;;;;;4880228;28;85986;-84
2021/06/18 10:43:38;;;;;;;9.90;9.30;;;47.30;32.30;;;;;;4880771;29;86987;-82
2021/06/18 10:46:08;;;;;;;9.82;9.23;;;47.40;32.40;;;;;;4882304;28;87299;-83
2021/06/18 10:48:49;;;;;;;10.30;9.70;;;47.20;32.10;;;;;;4880985;28;87771;-83
2021/06/18 10:51:58;;;;;;;10.50;9.80;;;47.80;31.40;;;;;;4884893;28;87111;-84
2021/06/18 10:54:48;;;;;;;10.55;9.75;;;48.50;31.70;;;;;;4882437;28;87179;-83
2021/06/18 10:57:24;;;;;;;11.18;10.27;;;48.70;31.40;;;;;;4880162;28;87399;-84
2021/06/18 10:59:52;;;;;;;10.57;9.88;;;48.50;31.00;;;;;;4880905;28;87050;-84
2021/06/18 11:02:24;;;;;;;10.57;9.88;;;48.90;30.90;;;;;;4897040;28;86870;-83
2021/06/18 11:04:56;;;;;;;10.70;10.10;;;48.90;31.00;;;;;;4883404;28;87307;-83
2021/06/18 11:07:23;;;;;;;10.90;10.15;;;49.20;31.00;;;;;;4883565;28;86346;-83
2021/06/18 11:09:53;;;;;;;11.63;10.63;;;48.50;30.80;;;;;;4884530;29;85963;-83
2021/06/18 11:12:22;;;;;;;10.93;10.05;;;48.40;30.40;;;;;;4883997;29;86316;-83
2021/06/18 11:14:58;;;;;;;9.82;9.23;;;48.80;30.90;;;;;;4885107;29;88923;-82
2021/06/18 11:17:47;;;;;;;11.00;10.30;;;49.10;30.20;;;;;;4886521;28;88430;-83
2021/06/18 11:23:38;;;;;;;11.00;10.15;;;49.10;29.60;;;;;;4884039;29;86391;-83
2021/06/18 11:26:05;;;;;;;10.60;9.73;;;49.00;30.30;;;;;;4892020;28;86626;-83
2021/06/18 11:28:35;;;;;;;11.10;10.20;;;48.70;30.20;;;;;;4894336;28;87395;-80
2021/06/18 11:31:07;;;;;;;10.73;9.98;;;49.30;30.00;;;;;;4893516;28;86025;-82
2021/06/18 11:33:38;;;;;;;9.93;9.32;;;49.70;30.00;;;;;;4894108;28;85276;-82
2021/06/18 11:36:31;;;;;;;10.90;10.30;;;49.80;29.40;;;;;;4894046;28;87537;-83
2021/06/18 11:38:58;;;;;;;10.48;9.75;;;49.80;29.20;;;;;;4893425;28;86494;-83
2021/06/18 11:41:31;;;;;;;10.98;10.27;;;50.00;29.30;;;;;;4893648;28;87240;-82
2021/06/18 11:44:01;;;;;;;10.75;10.10;;;50.50;29.10;;;;;;4893104;28;86052;-83
2021/06/18 11:46:29;;;;;;;10.05;9.45;;;50.80;28.90;;;;;;4892918;28;87660;-84
2021/06/18 11:48:57;;;;;;;10.90;10.30;;;50.80;28.80;;;;;;4894215;28;87382;-84
2021/06/18 11:51:25;;;;;;;10.50;9.80;;;50.80;28.90;;;;;;4893145;28;86010;-84
2021/06/18 11:53:51;;;;;;;;;;;50.60;29.00;;;;;;4894088;28;86171;-84
2021/06/18 11:56:17;;;;;;;10.63;9.82;;;49.80;28.50;;;;;;4894973;28;87659;-84
2021/06/18 11:58:44;;;;;;;10.43;9.82;;;49.80;29.10;;;;;;4894135;28;86886;-83
2021/06/18 12:01:21;;;;;;;10.77;10.07;;;49.50;28.70;;;;;;4904534;28;86046;-84
2021/06/18 12:03:51;;;;;;;10.50;9.70;;;49.10;29.00;;;;;;4896334;28;88095;-84
2021/06/18 12:06:18;;;;;;;10.77;10.18;;;48.20;30.00;;;;;;4897345;28;87301;-84
2021/06/18 12:09:08;;;;;;;11.23;10.48;;;48.20;30.20;;;;;;4891998;28;90865;-84
2021/06/18 12:11:35;;;;;;;10.07;9.45;;;48.60;30.10;;;;;;4889462;28;86081;-85
2021/06/18 12:14:01;;;;;;;9.70;9.05;;;48.50;30.10;;;;;;4893773;28;86212;-84
2021/06/18 12:16:31;;;;;;;10.30;9.70;;;48.40;29.50;;;;;;4891851;28;87577;-84
2021/06/18 12:19:23;;;;;;;10.27;9.57;;;48.50;29.40;;;;;;4891682;28;87036;-84
2021/06/18 12:25:19;;;;;;;10.10;9.50;;;48.50;29.20;;;;;;4910229;28;85328;-83
2021/06/18 12:27:45;;;;;;;9.93;9.15;;;48.30;29.80;;;;;;4889860;28;87625;-86
2021/06/18 12:30:17;;;;;;;10.02;9.20;;;48.30;29.50;;;;;;4901022;28;87572;-83
2021/06/18 12:32:44;;;;;;;9.90;9.10;;;48.70;28.90;;;;;;4896158;28;87129;-84
2021/06/18 12:35:12;;;;;;;10.15;9.55;;;48.50;29.40;;;;;;4898557;28;88238;-85
2021/06/18 12:37:40;;;;;;;10.82;10.02;;;48.50;28.80;;;;;;4902929;28;87139;-84
2021/06/18 12:40:13;;;;;;;9.45;8.90;;;48.40;29.10;;;;;;4895300;28;87399;-83
2021/06/18 12:42:48;;;;;;;10.10;9.43;;;48.30;29.00;;;;;;4900743;28;86153;-83
2021/06/18 12:45:21;;;;;;;9.77;9.27;;;48.20;28.40;;;;;;4896944;28;86180;-82
2021/06/18 12:47:53;;;;;;;10.00;9.32;;;48.20;28.60;;;;;;4892373;28;87322;-81
2021/06/18 12:50:31;;;;;;;9.95;9.35;;;48.00;28.80;;;;;;4892702;28;88779;-82
2021/06/18 12:53:11;;;;;;;9.70;9.00;;;47.90;28.80;;;;;;4893399;28;86090;-81
2021/06/18 12:55:51;;;;;;;10.60;9.90;;;47.40;29.30;;;;;;4892092;28;86180;-82
2021/06/18 12:58:18;;;;;;;10.15;9.35;;;47.30;29.10;;;;;;4892769;28;88705;-82
2021/06/18 13:00:51;;;;;;;10.13;9.50;;;47.10;29.30;;;;;;4912329;28;87164;-83
2021/06/18 13:03:30;;;;;;;10.18;9.57;;;46.90;28.90;;;;;;4911082;28;86071;-85
2021/06/18 13:05:56;;;;;;;9.85;9.27;;;46.30;29.40;;;;;;4908758;28;86316;-83
2021/06/18 13:08:23;;;;;;;9.60;9.10;;;46.10;29.00;;;;;;4903185;28;86574;-85
2021/06/18 13:10:51;;;;;;;9.63;9.02;;;46.00;29.90;;;;;;4898499;28;88261;-82
2021/06/18 13:13:25;;;;;;;9.30;8.73;;;45.90;29.40;;;;;;4892583;28;86135;-80
2021/06/18 13:15:51;;;;;;;8.80;8.27;;;45.90;29.90;;;;;;4902735;28;85502;-83
2021/06/18 13:18:17;;;;;;;10.23;9.55;;;45.90;29.70;;;;;;4897266;28;87242;-82
2021/06/18 13:20:44;;;;;;;9.32;8.73;;;45.70;30.30;;;;;;4890980;28;86162;-80
2021/06/18 13:23:30;;;;;;;9.25;8.65;;;45.50;30.30;;;;;;4891433;28;89755;-82
2021/06/18 13:26:06;;;;;;;9.00;8.40;;;45.50;31.00;;;;;;4892935;28;86799;-84
2021/06/18 13:28:49;;;;;;;9.93;9.23;;;45.10;30.30;;;;;;4892107;28;87568;-84
2021/06/18 13:31:32;;;;;;;9.30;8.73;;;45.00;30.00;;;;;;4897549;28;87371;-83
2021/06/18 13:33:58;;;;;;;9.25;8.65;;;45.10;30.00;;;;;;4906834;28;86146;-84
2021/06/18 13:36:35;;;;;;;9.65;8.88;;;44.30;30.00;;;;;;4897068;28;87184;-85
2021/06/18 13:39:18;;;;;;;9.38;8.60;;;43.50;30.90;;;;;;4902062;28;87121;-82
2021/06/18 13:41:44;;;;;;;9.40;8.70;;;43.30;31.20;;;;;;4898754;28;86155;-83
2021/06/18 13:44:10;;;;;;;9.13;8.52;;;43.30;31.30;;;;;;4898514;28;86315;-85
2021/06/18 13:46:38;;;;;;;9.15;8.55;;;43.00;31.40;;;;;;4889780;28;86299;-83
2021/06/18 13:49:05;;;;;;;9.07;8.48;;;42.80;31.50;;;;;;4893526;28;88578;-84
2021/06/18 13:51:32;;;;;;;9.38;8.68;;;42.90;31.60;;;;;;4906939;28;87123;-83
2021/06/18 13:53:59;;;;;;;8.65;8.05;;;42.60;32.10;;;;;;4894042;28;86177;-82
2021/06/18 13:56:26;;;;;;;8.80;8.20;;;42.50;30.90;;;;;;4890413;28;86211;-82
2021/06/18 13:58:52;;;;;;;8.98;8.38;;;42.30;32.00;;;;;;4908011;28;86661;-84
2021/06/18 14:01:18;;;;;;;9.05;8.48;;;42.20;32.00;;;;;;4894338;28;86812;-82
2021/06/18 14:03:43;;;;;;;8.80;8.27;;;42.10;31.50;;;;;;4897669;28;88194;-81
2021/06/18 14:06:09;;;;;;;8.63;8.05;;;41.90;31.40;;;;;;4890328;28;85538;-82
2021/06/18 14:08:36;;;;;;;9.30;8.57;;;41.70;32.00;;;;;;4891409;28;86966;-84
2021/06/18 14:11:02;;;;;;;9.32;8.52;;;41.60;32.50;;;;;;4889598;28;86977;-83
2021/06/18 14:13:28;;;;;;;8.40;7.90;;;41.60;32.10;;;;;;4894128;28;87562;-82
2021/06/18 14:15:54;;;;;;;8.82;8.13;;;41.50;32.80;;;;;;4901487;28;86223;-84
2021/06/18 14:18:22;;;;;;;9.05;8.25;;;41.30;32.50;;;;;;4905529;28;87247;-85
2021/06/18 14:20:49;;;;;;;9.25;8.60;;;41.00;32.60;;;;;;4896512;28;87261;-81
2021/06/18 14:23:17;;;;;;;9.10;8.30;;;40.80;32.60;;;;;;4896145;28;86293;-83
2021/06/18 14:25:47;;;;;;;8.30;7.67;;;40.40;32.70;;;;;;4898155;28;86168;-84
2021/06/18 14:28:13;;;;;;;7.97;7.50;;;40.10;33.20;;;;;;4908874;28;86988;-83
2021/06/18 14:30:39;;;;;;;8.98;8.43;;;39.80;33.70;;;;;;4902850;28;86911;-84
2021/06/18 14:33:12;;;;;;;8.48;7.88;;;39.50;34.00;;;;;;4897251;28;86418;-83
2021/06/18 14:35:42;;;;;;;8.98;8.38;;;39.30;34.30;;;;;;4899424;28;86968;-84
2021/06/18 14:38:08;;;;;;;8.90;8.15;;;39.20;33.50;;;;;;4900386;28;87684;-82
2021/06/18 14:40:35;;;;;;;8.57;7.95;;;39.10;34.70;;;;;;4901857;28;88001;-83
2021/06/18 14:43:01;;;;;;;8.50;7.90;;;39.00;34.60;;;;;;4896365;28;86278;-83
2021/06/18 14:45:27;;;;;;;8.50;7.80;;;38.90;35.00;;;;;;4886922;29;86689;-83
2021/06/18 14:47:52;;;;;;;8.40;7.82;;;38.70;34.80;;;;;;4885825;29;87439;-83
2021/06/18 14:50:18;;;;;;;8.27;7.68;;;38.50;34.50;;;;;;4902987;28;86865;-82
2021/06/18 14:52:44;;;;;;;8.10;7.60;;;38.40;34.60;;;;;;4892127;28;86832;-81
2021/06/18 14:55:10;;;;;;;8.23;7.72;;;38.30;34.60;;;;;;4905505;28;85873;-82
2021/06/18 14:57:37;;;;;;;7.85;7.10;;;38.00;33.30;;;;;;4893079;28;87494;-83
2021/06/18 15:00:05;;;;;;;8.00;7.40;;;37.60;33.80;;;;;;4897466;28;86119;-82
2021/06/18 15:02:31;;;;;;;8.07;7.47;;;37.60;34.50;;;;;;4885170;28;87762;-82
2021/06/18 15:04:57;;;;;;;8.15;7.55;;;37.40;34.70;;;;;;4894346;28;86530;-83
2021/06/18 15:07:22;;;;;;;8.32;7.80;;;37.30;35.50;;;;;;4885884;29;86809;-83
2021/06/18 15:09:48;;;;;;;7.88;7.38;;;37.10;35.10;;;;;;4897047;28;86932;-82
2021/06/18 15:12:14;;;;;;;8.07;7.38;;;37.00;35.00;;;;;;4898481;28;86943;-83
2021/06/18 15:14:40;;;;;;;8.07;7.47;;;37.00;35.60;;;;;;4891107;28;86681;-82
2021/06/18 15:17:06;;;;;;;8.30;7.60;;;37.00;36.10;;;;;;4903138;28;86820;-83
2021/06/18 15:19:32;;;;;;;8.15;7.45;;;36.90;35.40;;;;;;4890894;28;86935;-82
2021/06/18 15:21:58;;;;;;;8.10;7.60;;;36.80;35.40;;;;;;4890368;28;86912;-81
2021/06/18 15:24:23;;;;;;;7.90;7.38;;;36.70;36.30;;;;;;4886183;28;87007;-82
2021/06/18 15:26:49;;;;;;;8.18;7.53;;;36.80;34.80;;;;;;4889999;28;87979;-83
2021/06/18 15:29:15;;;;;;;7.63;7.15;;;36.60;34.80;;;;;;4885703;28;87028;-83
2021/06/18 15:31:47;;;;;;;7.63;7.15;;;36.60;34.60;;;;;;4890272;28;86813;-81
2021/06/18 15:34:12;;;;;;;8.13;7.43;;;36.50;34.80;;;;;;4894778;28;87007;-81
2021/06/18 15:36:43;;;;;;;8.13;7.40;;;36.40;35.00;;;;;;4881600;28;86625;-84
2021/06/18 15:39:10;;;;;;;7.63;7.13;;;36.10;34.80;;;;;;4891617;28;87078;-82
2021/06/18 15:41:36;;;;;;;7.70;7.13;;;36.00;34.60;;;;;;4887637;28;86702;-83
2021/06/18 15:44:03;;;;;;;8.00;7.30;;;35.80;35.80;;;;;;4885565;28;86190;-83
2021/06/18 15:46:29;;;;;;;8.05;7.18;;;35.50;35.70;;;;;;4887859;28;86695;-82
2021/06/18 15:48:55;;;;;;;7.78;6.97;;;35.30;36.50;;;;;;4884521;28;86905;-82